9VA2 weather

Inova Alexandria Hospital Heliport
Alexandria, Virginia, United States

Public forecast

Using degrees Fahrenheit for public forecast. Weather courtesy of forecast.io.

Closest aviation weather report (METAR) to Inova Alexandria Hospital Heliport

Closest report is Ronald Reagan Washington National Airport, 3.6 nm (6.6 km) ENE. Retrieved 2020/02/17 19:52 UTC (1 hour ago):

KDCA 171952Z 04003KT 10SM SCT120 BKN250 13/M04 A3025 RMK AO2 SLP243 T01281039

Closest aviation forecast (TAF) to Inova Alexandria Hospital Heliport

Closest forecast is Ronald Reagan Washington National Airport, 3.6 nm (6.6 km) ENE. Retrieved 2020/02/17 18:24 UTC (3 hours ago):

TAF KDCA 171723Z 1718/1824 05004KT P6SM SCT250 FM172300 09004KT P6SM BKN250 FM181600 18007KT P6SM BKN030 FM181900 21008KT P6SM BKN015 FM182100 22008KT P6SM -SHRA OVC020 FM182300 25006KT 6SM -RA OVC015